Time;durP1;ratioP1;P1;durP2;ratioP2;P2;SDS_P1;SDS_P2;PMS_P1;PMS_P2;Temp;Humidity;BMP_temperature;BMP_pressure;BME280_temperature;BME280_humidity;BME280_pressure;Samples;Min_cycle;Max_cycle;Signal;HPM_P1;HPM_P2
2022/09/27 00:00:39;;;;;;;;;;;;;;;15.81;69.16;98379.72;4444676;32;32878;-90
2022/09/27 00:03:10;;;;;;;;;;;;;;;15.83;69.31;98384.87;4433594;32;34808;-90
2022/09/27 00:05:41;;;;;;;;;;;;;;;15.59;70.41;98382.63;4447523;32;35479;-89
2022/09/27 00:08:10;;;;;;;;;;;;;;;15.83;69.68;98379.63;4439411;32;34476;-88
2022/09/27 00:10:40;;;;;;;;;;;;;;;15.94;69.05;98380.69;4442694;32;33311;-88
2022/09/27 00:13:11;;;;;;;;;;;;;;;15.86;69.66;98371.59;4444395;32;34174;-87
2022/09/27 00:15:41;;;;;;;;;;;;;;;15.64;70.60;98372.75;4443759;32;33949;-89
2022/09/27 00:18:13;;;;;;;;;;;;;;;15.58;71.04;98365.25;4447770;32;33996;-91
2022/09/27 00:20:41;;;;;;;;;;;;;;;15.52;71.15;98363.81;4437418;32;34170;-87
2022/09/27 00:23:13;;;;;;;;;;;;;;;15.58;70.65;98363.50;4429373;32;34389;-88
2022/09/27 00:25:54;;;;;;;;;;;;;;;15.59;70.27;98364.34;4441641;32;35181;-89
2022/09/27 00:28:23;;;;;;;;;;;;;;;15.47;70.63;98358.00;4436490;32;35692;-89
2022/09/27 00:31:02;;;;;;;;;;;;;;;15.37;69.89;98362.03;4448246;32;34028;-89
2022/09/27 00:33:31;;;;;;;;;;;;;;;15.51;69.55;98366.50;4446536;32;33214;-88
2022/09/27 00:36:03;;;;;;;;;;;;;;;15.56;69.12;98354.87;4443780;32;35219;-88
2022/09/27 00:38:34;;;;;;;;;;;;;;;15.55;68.89;98354.97;4445923;32;34356;-88
2022/09/27 00:41:04;;;;;;;;;;;;;;;15.55;68.56;98354.97;4447732;32;33671;-88
2022/09/27 00:43:43;;;;;;;;;;;;;;;15.51;68.32;98350.81;4435297;32;34451;-87
2022/09/27 00:46:17;;;;;;;;;;;;;;;15.54;68.16;98346.28;4443532;32;34705;-87
2022/09/27 00:48:45;;;;;;;;;;;;;;;15.48;68.32;98340.53;4445639;32;33708;-87
2022/09/27 00:51:15;;;;;;;;;;;;;;;15.46;68.33;98334.56;4459517;32;32325;-87
2022/09/27 00:53:48;;;;;;;;;;;;;;;15.41;68.35;98337.41;4452523;32;34915;-88
2022/09/27 00:56:19;;;;;;;;;;;;;;;15.45;68.18;98331.09;4465874;32;34256;-87
2022/09/27 00:58:49;;;;;;;;;;;;;;;15.44;68.16;98334.66;4449509;32;35314;-88
2022/09/27 01:01:25;;;;;;;;;;;;;;;15.39;68.45;98336.69;4463697;32;33426;-86
2022/09/27 01:03:55;;;;;;;;;;;;;;;15.30;69.15;98334.56;4451229;32;34508;-89
2022/09/27 01:06:27;;;;;;;;;;;;;;;15.38;69.16;98329.75;4468795;32;33516;-89
2022/09/27 01:08:56;;;;;;;;;;;;;;;15.34;69.20;98330.84;4463777;32;34808;-90
2022/09/27 01:11:31;;;;;;;;;;;;;;;15.24;70.10;98335.72;4462864;32;34318;-88
2022/09/27 01:14:10;;;;;;;;;;;;;;;15.42;69.49;98333.88;4466275;32;33626;-88
2022/09/27 01:16:49;;;;;;;;;;;;;;;15.42;69.72;98328.66;4444403;32;35849;-88
2022/09/27 01:19:20;;;;;;;;;;;;;;;15.42;69.85;98328.66;4465440;32;34564;-88
2022/09/27 01:21:51;;;;;;;;;;;;;;;15.41;70.24;98326.97;4449184;32;33585;-86
2022/09/27 01:24:36;;;;;;;;;;;;;;;15.51;70.28;98322.06;4468737;32;34150;-88
2022/09/27 01:27:23;;;;;;;;;;;;;;;15.44;70.32;98318.97;4448957;32;35612;-88
2022/09/27 01:29:57;;;;;;;;;;;;;;;15.47;70.64;98312.72;4448874;32;33794;-87
2022/09/27 01:32:29;;;;;;;;;;;;;;;15.58;70.24;98312.97;4469042;32;34214;-89
2022/09/27 01:35:00;;;;;;;;;;;;;;;15.60;70.09;98303.25;4452697;32;34329;-87
2022/09/27 01:37:32;;;;;;;;;;;;;;;15.58;70.25;98292.91;4447134;32;35169;-87
2022/09/27 01:40:07;;;;;;;;;;;;;;;15.64;69.92;98294.34;4462783;32;35074;-87
2022/09/27 01:42:42;;;;;;;;;;;;;;;15.65;69.73;98296.00;4465662;32;32515;-87
2022/09/27 01:45:13;;;;;;;;;;;;;;;15.34;70.61;98292.50;4454208;32;33708;-88
2022/09/27 01:47:44;;;;;;;;;;;;;;;15.54;69.76;98288.78;4449288;32;31878;-87
2022/09/27 01:50:14;;;;;;;;;;;;;;;15.46;69.69;98284.91;4449303;32;32864;-88
2022/09/27 01:52:46;;;;;;;;;;;;;;;15.42;69.46;98276.41;4452166;32;34227;-88
2022/09/27 01:55:15;;;;;;;;;;;;;;;15.47;68.92;98268.31;4463169;32;34194;-87
2022/09/27 01:57:46;;;;;;;;;;;;;;;15.35;69.21;98270.66;4468531;32;33823;-87
2022/09/27 02:00:17;;;;;;;;;;;;;;;15.30;68.95;98264.84;4463040;32;34387;-87
2022/09/27 02:02:50;;;;;;;;;;;;;;;15.23;69.01;98258.28;4453014;32;33159;-87
2022/09/27 02:05:28;;;;;;;;;;;;;;;15.19;68.92;98261.13;4462803;32;34500;-87
2022/09/27 02:08:02;;;;;;;;;;;;;;;15.12;68.61;98263.22;4450181;32;35089;-88
2022/09/27 02:10:33;;;;;;;;;;;;;;;15.28;67.54;98255.41;4468601;32;33359;-87
2022/09/27 02:13:02;;;;;;;;;;;;;;;14.94;68.68;98268.53;4466312;32;33952;-87
2022/09/27 02:15:34;;;;;;;;;;;;;;;14.91;68.82;98270.47;4463116;32;34971;-87
2022/09/27 02:18:15;;;;;;;;;;;;;;;15.06;67.96;98259.19;4449072;32;34850;-86
2022/09/27 02:20:45;;;;;;;;;;;;;;;14.93;68.45;98261.63;4468229;32;33383;-87
2022/09/27 02:23:16;;;;;;;;;;;;;;;14.92;68.27;98265.16;4463836;32;33152;-88
2022/09/27 02:25:46;;;;;;;;;;;;;;;14.93;68.16;98266.00;4464189;32;34094;-86
2022/09/27 02:28:19;;;;;;;;;;;;;;;14.89;67.92;98262.72;4463307;32;34565;-88
2022/09/27 02:30:47;;;;;;;;;;;;;;;14.84;68.25;98258.69;4449543;32;33821;-88
2022/09/27 02:33:23;;;;;;;;;;;;;;;14.71;68.45;98253.25;4468416;32;33592;-88
2022/09/27 02:35:52;;;;;;;;;;;;;;;14.73;68.61;98246.19;4440212;32;35626;-86
2022/09/27 02:38:20;;;;;;;;;;;;;;;14.69;68.50;98244.66;4462900;32;33808;-87
2022/09/27 02:40:49;;;;;;;;;;;;;;;14.79;68.20;98245.03;4463416;32;34002;-88
2022/09/27 02:43:19;;;;;;;;;;;;;;;14.71;68.14;98246.28;4468745;32;33354;-88
2022/09/27 02:45:54;;;;;;;;;;;;;;;14.68;68.16;98242.97;4455127;32;34845;-88
2022/09/27 02:48:26;;;;;;;;;;;;;;;14.63;68.67;98239.78;4448456;32;35017;-87
2022/09/27 02:51:05;;;;;;;;;;;;;;;14.57;68.72;98238.34;4448979;32;34392;-86
2022/09/27 02:53:38;;;;;;;;;;;;;;;14.58;68.57;98244.41;4464962;32;32875;-87
2022/09/27 02:56:14;;;;;;;;;;;;;;;14.55;68.63;98240.19;4440590;32;33736;-87
2022/09/27 02:58:49;;;;;;;;;;;;;;;14.52;68.77;98228.09;4468491;32;34585;-87
2022/09/27 03:01:19;;;;;;;;;;;;;;;14.56;68.88;98233.19;4462974;32;34386;-88
2022/09/27 03:03:53;;;;;;;;;;;;;;;14.59;68.77;98235.63;4450594;32;33622;-87
2022/09/27 03:06:22;;;;;;;;;;;;;;;14.54;68.77;98232.41;4441307;32;35348;-87
2022/09/27 03:08:51;;;;;;;;;;;;;;;14.60;69.13;98232.09;4453787;32;35711;-86
2022/09/27 03:11:20;;;;;;;;;;;;;;;14.38;69.96;98222.75;4462255;32;33876;-89
2022/09/27 03:13:55;;;;;;;;;;;;;;;14.36;70.07;98229.81;4464981;32;33630;-86
2022/09/27 03:16:43;;;;;;;;;;;;;;;14.57;69.58;98227.91;4462437;32;33651;-86
2022/09/27 03:19:14;;;;;;;;;;;;;;;14.62;69.34;98225.87;4447804;32;35030;-87
2022/09/27 03:21:51;;;;;;;;;;;;;;;14.58;69.56;98226.13;4467512;32;34389;-87
2022/09/27 03:24:20;;;;;;;;;;;;;;;14.68;69.40;98211.66;4466206;32;33575;-86
2022/09/27 03:26:51;;;;;;;;;;;;;;;14.56;69.86;98220.13;4462734;32;34005;-86
2022/09/27 03:29:20;;;;;;;;;;;;;;;14.65;69.72;98225.72;4462496;32;34232;-89
2022/09/27 03:31:50;;;;;;;;;;;;;;;14.62;69.82;98225.03;4453598;32;34438;-87
2022/09/27 03:34:24;;;;;;;;;;;;;;;14.53;70.39;98215.91;4452869;32;34833;-86
2022/09/27 03:36:52;;;;;;;;;;;;;;;14.47;70.65;98214.47;4447415;32;34645;-87
2022/09/27 03:39:22;;;;;;;;;;;;;;;14.51;70.48;98215.97;4447803;32;33892;-88
2022/09/27 03:41:51;;;;;;;;;;;;;;;14.61;70.48;98225.94;4465435;32;34403;-89
2022/09/27 03:44:21;;;;;;;;;;;;;;;14.73;70.22;98213.09;4468448;32;32377;-87
2022/09/27 03:46:54;;;;;;;;;;;;;;;14.59;70.50;98217.34;4465310;32;35020;-89
2022/09/27 03:49:29;;;;;;;;;;;;;;;14.68;70.42;98220.31;4448073;32;32769;-87
2022/09/27 03:51:59;;;;;;;;;;;;;;;14.63;70.58;98217.13;4450439;32;33446;-87
2022/09/27 03:54:29;;;;;;;;;;;;;;;14.58;71.14;98205.25;4447972;32;33644;-87
2022/09/27 03:56:58;;;;;;;;;;;;;;;14.68;71.09;98215.09;4453216;32;34350;-88
2022/09/27 03:59:27;;;;;;;;;;;;;;;14.73;71.02;98214.84;4446308;32;34079;-88
2022/09/27 04:01:59;;;;;;;;;;;;;;;14.64;71.38;98217.94;4460166;32;34558;-88
2022/09/27 04:04:31;;;;;;;;;;;;;;;14.80;71.45;98212.75;4451511;32;31743;-86
2022/09/27 04:07:01;;;;;;;;;;;;;;;14.86;71.40;98209.81;4463956;32;33934;-88
2022/09/27 04:09:30;;;;;;;;;;;;;;;14.79;71.60;98219.75;4451956;32;33808;-89
2022/09/27 04:12:01;;;;;;;;;;;;;;;14.75;72.32;98217.41;4458208;32;35274;-88
2022/09/27 04:14:34;;;;;;;;;;;;;;;14.89;72.28;98214.88;4464656;32;33670;-88
2022/09/27 04:17:05;;;;;;;;;;;;;;;14.88;72.40;98213.19;4459545;32;34160;-86
2022/09/27 04:19:38;;;;;;;;;;;;;;;15.10;71.88;98212.84;4450920;32;34485;-87
2022/09/27 04:22:08;;;;;;;;;;;;;;;14.76;73.57;98211.22;4448347;32;34198;-88
2022/09/27 04:24:46;;;;;;;;;;;;;;;14.67;73.88;98207.38;4456361;32;32727;-88
2022/09/27 04:27:18;;;;;;;;;;;;;;;14.82;73.43;98197.88;4445963;32;33652;-89
2022/09/27 04:29:50;;;;;;;;;;;;;;;14.77;73.39;98194.66;4444231;32;35377;-89
2022/09/27 04:32:22;;;;;;;;;;;;;;;14.84;73.31;98186.41;4466245;32;33801;-88
2022/09/27 04:37:43;;;;;;;;;;;;;;;14.76;73.80;98190.34;4460275;32;34188;-88
2022/09/27 04:40:12;;;;;;;;;;;;;;;14.80;74.08;98182.28;4464240;32;34999;-89
2022/09/27 04:42:47;;;;;;;;;;;;;;;15.12;72.62;98192.72;4449738;32;34205;-88
2022/09/27 04:45:16;;;;;;;;;;;;;;;15.03;72.87;98190.59;4454154;32;33065;-87
2022/09/27 04:47:49;;;;;;;;;;;;;;;14.99;73.10;98183.88;4463651;32;33735;-88
2022/09/27 04:50:18;;;;;;;;;;;;;;;14.93;73.52;98185.03;4448828;32;34553;-88
2022/09/27 04:53:00;;;;;;;;;;;;;;;14.98;73.53;98184.78;4452386;32;34236;-89
2022/09/27 04:55:33;;;;;;;;;;;;;;;14.90;73.88;98186.06;4463656;32;32871;-87
2022/09/27 04:58:01;;;;;;;;;;;;;;;14.91;74.11;98187.75;4468427;32;34892;-89
2022/09/27 05:00:30;;;;;;;;;;;;;;;14.96;74.03;98179.69;4448198;32;35498;-88
2022/09/27 05:03:01;;;;;;;;;;;;;;;14.94;74.20;98176.31;4453018;32;34532;-88
2022/09/27 05:05:32;;;;;;;;;;;;;;;15.15;73.13;98179.50;4449036;32;32780;-88
2022/09/27 05:08:02;;;;;;;;;;;;;;;15.19;73.01;98185.38;4444744;32;34222;-87
2022/09/27 05:10:34;;;;;;;;;;;;;;;15.16;73.21;98175.94;4460236;32;33961;-88
2022/09/27 05:13:03;;;;;;;;;;;;;;;15.09;73.27;98170.22;4446333;32;34401;-88
2022/09/27 05:15:35;;;;;;;;;;;;;;;15.19;73.43;98172.31;4441783;32;33788;-87
2022/09/27 05:18:10;;;;;;;;;;;;;;;15.27;72.87;98163.13;4452251;32;33651;-87
2022/09/27 05:20:55;;;;;;;;;;;;;;;15.24;73.29;98167.69;4456610;32;32434;-86
2022/09/27 05:23:29;;;;;;;;;;;;;;;15.05;75.00;98168.72;4468903;32;33449;-88
2022/09/27 05:25:59;;;;;;;;;;;;;;;15.13;74.88;98163.91;4457775;32;34798;-86
2022/09/27 05:28:30;;;;;;;;;;;;;;;14.97;75.64;98155.22;4441657;32;34008;-87
2022/09/27 05:30:59;;;;;;;;;;;;;;;14.98;75.65;98145.62;4451900;32;35541;-89
2022/09/27 05:33:36;;;;;;;;;;;;;;;15.09;74.73;98146.72;4467623;32;34469;-88
2022/09/27 05:36:10;;;;;;;;;;;;;;;15.21;74.52;98144.34;4457805;32;33603;-89
2022/09/27 05:38:43;;;;;;;;;;;;;;;15.32;74.00;98144.59;4460052;32;34414;-87
2022/09/27 05:41:14;;;;;;;;;;;;;;;15.22;74.27;98133.81;4452573;32;35367;-89
2022/09/27 05:43:47;;;;;;;;;;;;;;;15.30;74.26;98130.75;4459854;32;34628;-88
2022/09/27 05:46:17;;;;;;;;;;;;;;;15.49;73.53;98136.59;4443597;32;33234;-89
2022/09/27 05:48:47;;;;;;;;;;;;;;;15.36;74.06;98136.47;4448234;32;33492;-89
2022/09/27 05:51:19;;;;;;;;;;;;;;;15.48;74.00;98141.91;4448302;32;34513;-88
2022/09/27 05:53:55;;;;;;;;;;;;;;;15.48;73.80;98149.75;4466220;32;34098;-88
2022/09/27 05:56:24;;;;;;;;;;;;;;;15.47;74.16;98143.69;4449145;32;33724;-88
2022/09/27 05:58:55;;;;;;;;;;;;;;;15.43;74.74;98141.34;4468888;32;34786;-87
2022/09/27 06:01:26;;;;;;;;;;;;;;;15.62;74.14;98147.19;4463266;32;33531;-87
2022/09/27 06:03:58;;;;;;;;;;;;;;;15.57;74.91;98141.37;4448889;32;34590;-89
2022/09/27 06:06:27;;;;;;;;;;;;;;;15.56;74.51;98142.34;4448279;32;34641;-88
2022/09/27 06:09:00;;;;;;;;;;;;;;;15.71;74.06;98136.22;4454185;32;34390;-88
2022/09/27 06:11:29;;;;;;;;;;;;;;;15.60;75.16;98135.13;4463605;32;33980;-89
2022/09/27 06:14:05;;;;;;;;;;;;;;;15.51;75.38;98137.38;4465248;32;34007;-88
2022/09/27 06:16:36;;;;;;;;;;;;;;;15.72;74.81;98135.28;4443751;32;33727;-88
2022/09/27 06:19:09;;;;;;;;;;;;;;;15.79;74.50;98144.44;4433271;32;35766;-88
2022/09/27 06:21:45;;;;;;;;;;;;;;;15.76;74.71;98141.19;4438580;32;35145;-88
2022/09/27 06:24:15;;;;;;;;;;;;;;;15.90;74.18;98140.34;4442804;32;35569;-89
2022/09/27 06:26:50;;;;;;;;;;;;;;;16.09;73.17;98155.78;4447992;32;33264;-89
2022/09/27 06:29:26;;;;;;;;;;;;;;;15.85;74.41;98148.50;4446577;32;35708;-88
2022/09/27 06:31:55;;;;;;;;;;;;;;;16.00;74.27;98147.56;4465546;32;34724;-88
2022/09/27 06:34:28;;;;;;;;;;;;;;;16.19;73.90;98142.06;4441720;32;34558;-88
2022/09/27 06:37:00;;;;;;;;;;;;;;;16.20;74.12;98137.66;4444631;32;33979;-88
2022/09/27 06:39:38;;;;;;;;;;;;;;;16.21;74.15;98142.81;4460389;32;35155;-90
2022/09/27 06:42:18;;;;;;;;;;;;;;;16.34;73.31;98131.59;4441357;32;35032;-91
2022/09/27 06:44:54;;;;;;;;;;;;;;;16.17;73.71;98125.63;4440289;32;33576;-88
2022/09/27 06:47:24;;;;;;;;;;;;;;;16.18;74.07;98124.66;4448187;32;33693;-90
2022/09/27 06:49:54;;;;;;;;;;;;;;;16.30;73.63;98125.69;4434807;32;35136;-89
2022/09/27 06:52:23;;;;;;;;;;;;;;;16.41;72.98;98127.66;4458214;32;35052;-88
2022/09/27 06:54:55;;;;;;;;;;;;;;;16.49;72.72;98135.88;4448028;32;34115;-88
2022/09/27 07:03:02;;;;;;;;;;;;;;;16.37;72.68;98153.16;4437888;32;34094;-88
2022/09/27 07:05:31;;;;;;;;;;;;;;;16.38;73.13;98156.63;4448438;32;34280;-89
2022/09/27 07:08:06;;;;;;;;;;;;;;;16.48;72.83;98151.66;4462204;32;32533;-89
2022/09/27 07:10:36;;;;;;;;;;;;;;;16.55;72.73;98150.34;4447617;32;35612;-89
2022/09/27 07:13:06;;;;;;;;;;;;;;;16.23;73.53;98144.50;4448067;32;32953;-88
2022/09/27 07:15:37;;;;;;;;;;;;;;;16.69;72.54;98149.50;4436970;32;33820;-89
2022/09/27 07:18:07;;;;;;;;;;;;;;;16.80;72.53;98150.53;4444639;32;33161;-91
2022/09/27 07:20:37;;;;;;;;;;;;;;;16.79;72.45;98150.63;4447167;32;33721;-92
2022/09/27 07:23:09;;;;;;;;;;;;;;;16.67;72.25;98152.19;4445154;32;34779;-90
2022/09/27 07:25:39;;;;;;;;;;;;;;;16.70;72.29;98151.19;4443522;32;35880;-90
2022/09/27 07:28:09;;;;;;;;;;;;;;;16.88;71.42;98149.22;4459785;32;33597;-89
2022/09/27 07:30:38;;;;;;;;;;;;;;;16.99;71.20;98137.12;4442711;32;34902;-88
2022/09/27 07:33:12;;;;;;;;;;;;;;;17.13;70.57;98140.59;4435089;32;35289;-89
2022/09/27 07:35:41;;;;;;;;;;;;;;;16.76;71.51;98150.78;4451005;32;33853;-90
2022/09/27 07:38:13;;;;;;;;;;;;;;;17.17;70.03;98150.78;4443802;32;34374;-90
2022/09/27 07:40:43;;;;;;;;;;;;;;;16.82;70.69;98151.28;4446503;32;34462;-89
2022/09/27 07:43:15;;;;;;;;;;;;;;;16.96;70.56;98141.69;4441569;32;36346;-90
2022/09/27 07:45:44;;;;;;;;;;;;;;;17.17;70.42;98132.44;4447568;32;33636;-88
2022/09/27 07:48:16;;;;;;;;;;;;;;;17.04;70.56;98123.72;4464768;32;33735;-88
2022/09/27 07:50:46;;;;;;;;;;;;;;;17.22;70.58;98135.59;4443694;32;34309;-90
2022/09/27 07:53:23;;;;;;;;;;;;;;;17.17;69.77;98142.94;4445903;32;34881;-88
2022/09/27 07:56:01;;;;;;;;;;;;;;;17.14;69.69;98150.16;4444518;32;35053;-89
2022/09/27 07:58:31;;;;;;;;;;;;;;;17.29;69.63;98143.91;4448877;32;33892;-90
2022/09/27 08:01:01;;;;;;;;;;;;;;;17.24;69.70;98136.34;4451230;32;33903;-89
2022/09/27 08:03:30;;;;;;;;;;;;;;;17.30;69.84;98136.88;4449832;32;36295;-90
2022/09/27 08:06:02;;;;;;;;;;;;;;;17.43;68.70;98130.75;4444542;32;34348;-89
2022/09/27 08:08:32;;;;;;;;;;;;;;;17.26;69.53;98131.03;4443268;32;33520;-87
2022/09/27 08:11:10;;;;;;;;;;;;;;;17.27;69.62;98127.44;4451712;32;34839;-89
2022/09/27 08:13:51;;;;;;;;;;;;;;;17.25;69.46;98140.66;4448544;32;34282;-90
2022/09/27 08:16:20;;;;;;;;;;;;;;;17.28;69.33;98144.88;4435282;32;34286;-88
2022/09/27 08:19:01;;;;;;;;;;;;;;;17.24;69.55;98149.44;4439056;32;34503;-89
2022/09/27 08:21:38;;;;;;;;;;;;;;;17.14;69.70;98144.94;4447050;32;34740;-89
2022/09/27 08:24:13;;;;;;;;;;;;;;;17.24;69.77;98151.25;4451839;32;34047;-88
2022/09/27 08:26:45;;;;;;;;;;;;;;;17.25;69.86;98150.28;4452195;32;34458;-90
2022/09/27 08:29:19;;;;;;;;;;;;;;;17.19;70.50;98145.47;4448042;32;33149;-87
2022/09/27 08:31:56;;;;;;;;;;;;;;;17.46;69.99;98140.19;4449642;32;33444;-86
2022/09/27 08:34:24;;;;;;;;;;;;;;;17.54;69.66;98137.06;4446783;32;34838;-87
2022/09/27 08:36:59;;;;;;;;;;;;;;;17.62;68.87;98140.03;4450151;32;34733;-86
2022/09/27 08:39:28;;;;;;;;;;;;;;;17.55;68.97;98138.75;4446469;32;33399;-88
2022/09/27 08:42:01;;;;;;;;;;;;;;;17.61;69.10;98139.16;4451735;32;34419;-91
2022/09/27 08:44:32;;;;;;;;;;;;;;;17.65;69.13;98135.41;4445740;32;35222;-88
2022/09/27 08:47:11;;;;;;;;;;;;;;;17.82;68.23;98136.09;4446090;32;34749;-90
2022/09/27 08:49:41;;;;;;;;;;;;;;;17.71;67.85;98134.16;4452338;32;33349;-87
2022/09/27 08:52:13;;;;;;;;;;;;;;;17.56;68.25;98140.41;4447402;32;33946;-87
2022/09/27 08:54:43;;;;;;;;;;;;;;;17.52;68.60;98136.31;4446924;32;35000;-87
2022/09/27 08:57:13;;;;;;;;;;;;;;;17.52;68.80;98128.44;4446467;32;34604;-86
2022/09/27 08:59:42;;;;;;;;;;;;;;;17.20;69.44;98126.16;4443093;32;34087;-88
2022/09/27 09:02:14;;;;;;;;;;;;;;;17.16;69.63;98130.78;4452669;32;35052;-86
2022/09/27 09:04:45;;;;;;;;;;;;;;;17.36;69.09;98126.00;4448006;32;34925;-86
2022/09/27 09:07:16;;;;;;;;;;;;;;;17.34;69.38;98120.88;4444444;32;33660;-87
2022/09/27 09:09:47;;;;;;;;;;;;;;;17.23;69.81;98121.59;4444988;32;33170;-89
2022/09/27 09:15:13;;;;;;;;;;;;;;;17.52;68.44;98108.34;4450987;32;35010;-87
2022/09/27 09:17:53;;;;;;;;;;;;;;;17.63;67.78;98102.34;4445845;32;34453;-88
2022/09/27 09:20:27;;;;;;;;;;;;;;;17.45;69.07;98092.16;4441870;32;34493;-88
2022/09/27 09:23:23;;;;;;;;;;;;;;;17.46;69.32;98093.84;4444345;32;34475;-89
2022/09/27 09:25:53;;;;;;;;;;;;;;;17.18;71.03;98101.84;4436418;32;34743;-89
2022/09/27 09:28:31;;;;;;;;;;;;;;;17.25;71.02;98103.13;4448363;32;34282;-86
2022/09/27 09:31:03;;;;;;;;;;;;;;;17.06;72.43;98096.47;4449655;32;33651;-88
2022/09/27 09:33:34;;;;;;;;;;;;;;;17.35;71.36;98101.59;4449184;32;34169;-87
2022/09/27 09:36:05;;;;;;;;;;;;;;;17.37;71.49;98096.22;4445924;32;34577;-85
2022/09/27 09:38:41;;;;;;;;;;;;;;;17.43;71.47;98088.81;4437971;32;33790;-88
2022/09/27 09:41:15;;;;;;;;;;;;;;;17.65;70.98;98092.59;4438519;32;33121;-87
2022/09/27 09:43:48;;;;;;;;;;;;;;;17.73;71.37;98092.09;4444419;32;33757;-86
2022/09/27 09:46:18;;;;;;;;;;;;;;;17.89;70.93;98090.13;4441884;32;33135;-86
2022/09/27 09:48:49;;;;;;;;;;;;;;;17.59;71.10;98086.00;4436700;32;35100;-87
2022/09/27 09:51:20;;;;;;;;;;;;;;;17.85;70.61;98076.38;4458380;32;33118;-88
2022/09/27 09:53:52;;;;;;;;;;;;;;;18.03;69.68;98076.91;4447078;32;35339;-88
2022/09/27 09:56:23;;;;;;;;;;;;;;;17.95;69.75;98079.19;4443964;32;33892;-86
2022/09/27 09:58:54;;;;;;;;;;;;;;;17.95;70.06;98076.56;4460370;32;36362;-88
2022/09/27 10:01:23;;;;;;;;;;;;;;;18.08;69.85;98080.03;4462494;32;32860;-87
2022/09/27 10:03:54;;;;;;;;;;;;;;;17.83;70.49;98080.91;4452828;32;34277;-88
2022/09/27 10:06:23;;;;;;;;;;;;;;;17.96;70.16;98078.28;4464702;32;33794;-87
2022/09/27 10:08:54;;;;;;;;;;;;;;;18.10;69.62;98075.53;4448544;32;33967;-87
2022/09/27 10:11:26;;;;;;;;;;;;;;;18.12;69.76;98070.16;4453270;32;33036;-87
2022/09/27 10:13:57;;;;;;;;;;;;;;;18.17;69.94;98069.84;4448772;32;34750;-88
2022/09/27 10:16:27;;;;;;;;;;;;;;;18.11;70.17;98063.25;4451544;32;34544;-87
2022/09/27 10:18:57;;;;;;;;;;;;;;;18.27;69.80;98068.25;4460220;32;33688;-87
2022/09/27 10:21:27;;;;;;;;;;;;;;;18.30;69.60;98061.00;4450531;32;34039;-87
2022/09/27 10:24:07;;;;;;;;;;;;;;;18.28;70.09;98057.63;4461751;32;33845;-87
2022/09/27 10:26:43;;;;;;;;;;;;;;;18.41;69.29;98054.12;4455204;32;34937;-88
2022/09/27 10:29:30;;;;;;;;;;;;;;;18.43;69.37;98050.44;4458364;32;33736;-88
2022/09/27 10:32:05;;;;;;;;;;;;;;;18.48;70.06;98044.88;4448413;32;35166;-88
2022/09/27 10:34:35;;;;;;;;;;;;;;;18.64;69.65;98049.87;4447153;32;34054;-87
2022/09/27 10:37:16;;;;;;;;;;;;;;;18.55;69.68;98044.31;4462678;32;34091;-88
2022/09/27 10:39:47;;;;;;;;;;;;;;;18.71;69.22;98040.59;4444462;32;33381;-88
2022/09/27 10:42:19;;;;;;;;;;;;;;;18.92;68.39;98040.84;4446215;32;34366;-89
2022/09/27 10:44:53;;;;;;;;;;;;;;;18.98;68.27;98041.22;4450277;32;34404;-88
2022/09/27 10:47:22;;;;;;;;;;;;;;;18.88;68.37;98042.84;4446560;32;35440;-88
2022/09/27 10:49:56;;;;;;;;;;;;;;;19.09;68.23;98045.69;4447745;32;33878;-88
2022/09/27 10:52:25;;;;;;;;;;;;;;;19.03;68.51;98040.88;4464267;32;34425;-89
2022/09/27 10:54:59;;;;;;;;;;;;;;;19.28;67.43;98033.78;4467543;32;34144;-88
2022/09/27 10:57:37;;;;;;;;;;;;;;;19.43;67.44;98034.44;4461169;32;34036;-87
2022/09/27 11:00:19;;;;;;;;;;;;;;;19.45;67.29;98030.75;4448040;32;34253;-87
2022/09/27 11:02:51;;;;;;;;;;;;;;;19.64;67.37;98024.06;4450780;32;32853;-88
2022/09/27 11:05:32;;;;;;;;;;;;;;;19.64;67.25;98016.16;4437616;32;32399;-86
2022/09/27 11:08:02;;;;;;;;;;;;;;;19.90;66.86;98011.53;4465560;32;33697;-88
2022/09/27 11:10:32;;;;;;;;;;;;;;;20.02;66.58;98010.56;4447740;32;34218;-89
2022/09/27 11:13:11;;;;;;;;;;;;;;;20.33;65.54;98011.63;4450993;32;33685;-89
2022/09/27 11:15:49;;;;;;;;;;;;;;;20.11;65.32;98009.03;4448488;32;34934;-87
2022/09/27 11:18:20;;;;;;;;;;;;;;;20.49;64.00;98005.97;4459581;32;33796;-88
2022/09/27 11:20:57;;;;;;;;;;;;;;;20.57;63.94;98005.38;4453076;32;34694;-89
2022/09/27 11:23:35;;;;;;;;;;;;;;;20.54;63.96;98001.16;4462673;32;32284;-89
2022/09/27 11:26:09;;;;;;;;;;;;;;;20.62;63.77;97997.94;4451911;32;34016;-91
2022/09/27 11:28:44;;;;;;;;;;;;;;;20.71;63.27;97994.53;4444163;32;34290;-89
2022/09/27 11:31:14;;;;;;;;;;;;;;;20.70;62.88;97982.31;4445828;32;33598;-89
2022/09/27 11:33:55;;;;;;;;;;;;;;;20.57;62.71;97982.50;4465790;32;32408;-90
2022/09/27 11:36:28;;;;;;;;;;;;;;;20.44;63.11;97982.63;4451451;32;33504;-90
2022/09/27 11:39:01;;;;;;;;;;;;;;;20.54;62.94;97985.34;4457037;32;33998;-88
2022/09/27 11:41:42;;;;;;;;;;;;;;;20.65;62.89;97984.50;4448839;32;33793;-88
2022/09/27 11:44:21;;;;;;;;;;;;;;;20.59;62.86;97975.31;4444888;32;33860;-89
2022/09/27 11:46:51;;;;;;;;;;;;;;;20.49;62.67;97977.00;4443342;32;34071;-87
2022/09/27 11:49:35;;;;;;;;;;;;;;;20.49;62.85;97968.22;4411920;32;863205;-89
2022/09/27 11:52:11;;;;;;;;;;;;;;;20.46;63.22;97962.28;4430927;32;35701;-88
2022/09/27 11:54:43;;;;;;;;;;;;;;;20.60;63.00;97957.69;4431340;32;33481;-87
2022/09/27 11:57:17;;;;;;;;;;;;;;;20.48;63.09;97956.84;4435375;32;33672;-88
2022/09/27 11:59:50;;;;;;;;;;;;;;;20.55;62.98;97960.69;4435100;32;35039;-88
2022/09/27 12:02:26;;;;;;;;;;;;;;;20.64;63.03;97946.78;4445181;32;32643;-88
2022/09/27 12:05:06;;;;;;;;;;;;;;;20.67;63.17;97951.78;4431189;32;33946;-90
2022/09/27 12:07:44;;;;;;;;;;;;;;;20.63;63.37;97941.63;4430152;32;35364;-88
2022/09/27 12:10:14;;;;;;;;;;;;;;;20.78;62.25;97939.50;4431966;32;33965;-87
2022/09/27 12:12:44;;;;;;;;;;;;;;;20.70;62.42;97939.31;4431892;32;34374;-88
2022/09/27 12:15:14;;;;;;;;;;;;;;;20.58;63.13;97942.00;4449600;32;32811;-89
2022/09/27 12:17:45;;;;;;;;;;;;;;;20.34;63.50;97936.91;4443868;32;34394;-87
2022/09/27 12:20:17;;;;;;;;;;;;;;;20.45;63.18;97936.88;4444840;32;35645;-87
2022/09/27 12:22:50;;;;;;;;;;;;;;;20.39;63.18;97940.03;4448212;32;33855;-87
2022/09/27 12:25:29;;;;;;;;;;;;;;;20.10;64.20;97946.78;4436292;32;32964;-87
2022/09/27 12:28:00;;;;;;;;;;;;;;;20.13;64.42;97946.56;4444139;32;34430;-88
2022/09/27 12:30:30;;;;;;;;;;;;;;;20.13;64.09;97939.50;4442856;32;33140;-89
2022/09/27 12:33:01;;;;;;;;;;;;;;;20.18;64.10;97937.31;4446773;32;34256;-88
2022/09/27 12:35:32;;;;;;;;;;;;;;;19.97;64.50;97931.97;4443200;32;34434;-86
2022/09/27 12:38:05;;;;;;;;;;;;;;;20.11;65.62;97914.25;4447586;32;33540;-88
2022/09/27 12:40:37;;;;;;;;;;;;;;;20.18;65.20;97913.63;4445896;32;34868;-88
2022/09/27 12:43:16;;;;;;;;;;;;;;;20.45;63.84;97910.53;4444710;32;35051;-89
2022/09/27 12:45:52;;;;;;;;;;;;;;;20.91;62.92;97899.81;4439656;32;33873;-88
2022/09/27 12:48:23;;;;;;;;;;;;;;;20.73;62.39;97896.91;4439695;32;34309;-89
2022/09/27 12:51:01;;;;;;;;;;;;;;;21.05;61.34;97894.22;4458346;32;35356;-89
2022/09/27 12:53:34;;;;;;;;;;;;;;;21.13;61.60;97893.56;4444761;32;33758;-88
2022/09/27 12:56:08;;;;;;;;;;;;;;;21.08;60.41;97888.66;4446197;32;33706;-87
2022/09/27 12:58:58;;;;;;;;;;;;;;;20.90;59.84;97877.91;4445571;32;34657;-90
2022/09/27 13:04:28;;;;;;;;;;;;;;;20.85;60.24;97880.91;4431835;32;33402;-87
2022/09/27 13:07:10;;;;;;;;;;;;;;;20.93;60.16;97889.97;4437759;32;33268;-88
2022/09/27 13:09:46;;;;;;;;;;;;;;;20.76;60.82;97892.22;4434716;32;33735;-88
2022/09/27 13:12:17;;;;;;;;;;;;;;;20.73;61.33;97894.25;4435990;32;35174;-87
2022/09/27 13:14:49;;;;;;;;;;;;;;;20.69;61.08;97879.69;4456841;32;32791;-89
2022/09/27 13:17:39;;;;;;;;;;;;;;;20.76;60.36;97884.31;4431531;32;34266;-86
2022/09/27 13:20:29;;;;;;;;;;;;;;;20.58;60.94;97870.88;4434640;32;35624;-87
2022/09/27 13:23:04;;;;;;;;;;;;;;;20.34;61.87;97865.78;4445307;32;35580;-88
2022/09/27 13:25:51;;;;;;;;;;;;;;;20.54;61.12;97865.94;4445623;32;33767;-87
2022/09/27 13:28:34;;;;;;;;;;;;;;;20.65;60.46;97871.19;4443270;32;33322;-88
2022/09/27 13:31:09;;;;;;;;;;;;;;;20.63;60.73;97865.22;4444111;32;32730;-86